Time;durP1;ratioP1;P1;durP2;ratioP2;P2;SDS_P1;SDS_P2;PMS_P1;PMS_P2;Temp;Humidity;BMP_temperature;BMP_pressure;BME280_temperature;BME280_humidity;BME280_pressure;Samples;Min_cycle;Max_cycle;Signal;HPM_P1;HPM_P2
2023/09/02 00:00:41;;;;;;;7.47;4.70;;;13.20;99.90;;;;;;5073214;28;20439;-79
2023/09/02 00:03:07;;;;;;;9.43;5.20;;;13.20;99.90;;;;;;5062272;28;20045;-77
2023/09/02 00:05:32;;;;;;;9.23;4.43;;;13.20;99.90;;;;;;5051802;28;20488;-76
2023/09/02 00:07:58;;;;;;;8.73;4.35;;;13.20;99.90;;;;;;5054294;28;20040;-76
2023/09/02 00:10:23;;;;;;;7.68;3.95;;;13.10;99.90;;;;;;5071986;28;20431;-78
2023/09/02 00:12:49;;;;;;;8.18;4.53;;;13.10;99.90;;;;;;5061426;28;20443;-78
2023/09/02 00:15:15;;;;;;;7.03;3.78;;;13.20;99.90;;;;;;5035106;28;20458;-78
2023/09/02 00:17:41;;;;;;;8.98;3.90;;;13.10;99.90;;;;;;5033386;28;20123;-78
2023/09/02 00:20:10;;;;;;;7.53;4.05;;;13.20;99.90;;;;;;5073156;28;20111;-77
2023/09/02 00:22:35;;;;;;;7.75;4.40;;;13.20;99.90;;;;;;5066550;28;20038;-77
2023/09/02 00:25:01;;;;;;;7.15;3.90;;;13.10;99.90;;;;;;5034828;28;20481;-77
2023/09/02 00:27:27;;;;;;;7.68;4.13;;;13.10;99.90;;;;;;5051473;28;20132;-77
2023/09/02 00:29:52;;;;;;;7.75;3.95;;;13.10;99.90;;;;;;5053541;28;20123;-77
2023/09/02 00:32:18;;;;;;;9.68;4.05;;;13.20;99.90;;;;;;5073134;28;20036;-77
2023/09/02 00:34:46;;;;;;;8.30;3.80;;;13.20;99.90;;;;;;5050226;28;20052;-78
2023/09/02 00:37:12;;;;;;;9.60;4.25;;;13.20;99.90;;;;;;5051750;28;20048;-77
2023/09/02 00:39:38;;;;;;;6.82;3.75;;;13.30;99.90;;;;;;5051605;28;20040;-77
2023/09/02 00:42:06;;;;;;;7.07;3.42;;;13.30;99.90;;;;;;5068192;28;20055;-77
2023/09/02 00:44:34;;;;;;;6.60;3.55;;;13.20;99.90;;;;;;5035105;28;20037;-79
2023/09/02 00:47:02;;;;;;;7.75;3.53;;;13.30;99.90;;;;;;5051766;28;20033;-79
2023/09/02 00:49:27;;;;;;;6.30;3.70;;;13.20;99.90;;;;;;5035161;28;20045;-78
2023/09/02 00:51:53;;;;;;;7.43;4.05;;;13.30;99.90;;;;;;5038449;28;20063;-77
2023/09/02 00:54:18;;;;;;;6.80;3.85;;;13.30;99.90;;;;;;5059628;28;20040;-77
2023/09/02 00:56:44;;;;;;;6.80;3.97;;;13.30;99.90;;;;;;5055380;28;20045;-78
2023/09/02 00:59:11;;;;;;;7.13;3.78;;;13.30;99.90;;;;;;5055278;28;20045;-77
2023/09/02 01:01:41;;;;;;;7.18;3.20;;;13.30;99.90;;;;;;5018980;28;20091;-76
2023/09/02 01:04:07;;;;;;;7.07;3.50;;;13.30;99.90;;;;;;5050672;28;20037;-77
2023/09/02 01:06:34;;;;;;;6.47;3.53;;;13.30;99.90;;;;;;5053075;28;20106;-76
2023/09/02 01:09:00;;;;;;;6.15;3.50;;;13.30;99.90;;;;;;5074981;28;20047;-77
2023/09/02 01:11:26;;;;;;;6.55;3.25;;;13.20;99.90;;;;;;5075033;28;20123;-77
2023/09/02 01:13:52;;;;;;;7.47;3.50;;;13.20;99.90;;;;;;5073613;28;20040;-78
2023/09/02 01:16:17;;;;;;;7.93;3.58;;;13.20;99.90;;;;;;5056441;28;20048;-78
2023/09/02 01:18:43;;;;;;;6.72;3.63;;;13.20;99.90;;;;;;5056137;28;20041;-77
2023/09/02 01:21:31;;;;;;;7.95;4.10;;;13.20;99.90;;;;;;5054997;28;20509;-78
2023/09/02 01:24:26;;;;;;;7.70;3.80;;;13.10;99.90;;;;;;5048047;28;20040;-77
2023/09/02 01:27:05;;;;;;;8.63;4.22;;;13.10;99.90;;;;;;5054451;28;20073;-77
2023/09/02 01:29:40;;;;;;;7.70;4.63;;;13.10;99.90;;;;;;5038139;28;20052;-78
2023/09/02 01:32:09;;;;;;;8.98;4.00;;;13.10;99.90;;;;;;5057206;28;20036;-78
2023/09/02 01:34:37;;;;;;;7.53;3.30;;;13.20;99.90;;;;;;5041032;28;20044;-78
2023/09/02 01:37:07;;;;;;;5.55;2.70;;;13.20;99.90;;;;;;5054391;28;20049;-77
2023/09/02 01:39:35;;;;;;;5.78;3.08;;;13.20;99.90;;;;;;5044543;28;20052;-78
2023/09/02 01:42:01;;;;;;;6.57;3.70;;;13.20;99.90;;;;;;5049536;28;20450;-78
2023/09/02 01:44:29;;;;;;;5.65;2.60;;;13.20;99.90;;;;;;5047380;28;20136;-77
2023/09/02 01:46:55;;;;;;;4.47;2.15;;;13.20;99.90;;;;;;5030454;28;20116;-78
2023/09/02 01:49:21;;;;;;;4.43;2.00;;;13.20;99.90;;;;;;5030659;28;20501;-77
2023/09/02 01:51:48;;;;;;;4.63;2.08;;;13.20;99.90;;;;;;5055359;28;20044;-77
2023/09/02 01:54:13;;;;;;;5.15;2.40;;;13.20;99.90;;;;;;5065776;28;20502;-77
2023/09/02 01:56:40;;;;;;;4.28;2.30;;;13.10;99.90;;;;;;5066917;28;20068;-77
2023/09/02 01:59:05;;;;;;;5.75;2.50;;;13.10;99.90;;;;;;5052165;28;20389;-79
2023/09/02 02:01:33;;;;;;;4.82;2.67;;;13.10;99.90;;;;;;5037380;28;20040;-80
2023/09/02 02:04:07;;;;;;;6.40;3.10;;;13.10;99.90;;;;;;5045583;28;20037;-79
2023/09/02 02:06:35;;;;;;;6.43;3.42;;;13.00;99.90;;;;;;5065100;28;20425;-80
2023/09/02 02:09:12;;;;;;;6.05;3.55;;;13.00;99.90;;;;;;5070646;28;20046;-79
2023/09/02 02:11:38;;;;;;;7.25;4.25;;;12.90;99.90;;;;;;5054489;28;20037;-77
2023/09/02 02:14:05;;;;;;;7.43;3.80;;;12.80;99.90;;;;;;5063715;28;20048;-76
2023/09/02 02:16:31;;;;;;;7.75;4.40;;;12.80;99.90;;;;;;5070905;28;20039;-76
2023/09/02 02:18:58;;;;;;;5.28;2.67;;;12.90;99.90;;;;;;5046266;28;20044;-76
2023/09/02 02:21:24;;;;;;;4.50;2.28;;;12.90;99.90;;;;;;5051797;28;20384;-77
2023/09/02 02:23:50;;;;;;;5.47;3.13;;;12.90;99.90;;;;;;5045412;28;20124;-76
2023/09/02 02:26:16;;;;;;;5.03;2.80;;;12.90;99.90;;;;;;5067702;28;20104;-77
2023/09/02 02:28:42;;;;;;;5.05;2.33;;;12.90;99.90;;;;;;5051817;28;20508;-78
2023/09/02 02:31:08;;;;;;;2.47;1.42;;;13.00;99.90;;;;;;5067062;28;20138;-77
2023/09/02 02:33:36;;;;;;;2.20;1.33;;;13.00;99.90;;;;;;5045962;28;20091;-77
2023/09/02 02:36:02;;;;;;;2.30;1.10;;;12.90;99.90;;;;;;5048864;28;20497;-77
2023/09/02 02:38:27;;;;;;;2.33;0.98;;;12.90;99.90;;;;;;5037609;28;20115;-76
2023/09/02 02:40:53;;;;;;;0.90;0.80;;;12.80;99.90;;;;;;5051314;28;20032;-77
2023/09/02 02:43:25;;;;;;;2.10;1.00;;;12.80;99.90;;;;;;5053653;28;20120;-77
2023/09/02 02:45:51;;;;;;;2.10;0.90;;;12.80;99.90;;;;;;5051229;28;20393;-78
2023/09/02 02:48:17;;;;;;;1.42;1.00;;;12.80;99.90;;;;;;5053213;28;20033;-77
2023/09/02 02:50:42;;;;;;;1.75;1.00;;;12.80;99.90;;;;;;5069735;28;20043;-77
2023/09/02 02:53:08;;;;;;;2.40;1.17;;;12.70;99.90;;;;;;5068290;28;20032;-77
2023/09/02 02:55:33;;;;;;;1.30;1.00;;;12.60;99.90;;;;;;5049867;28;21534;-77
2023/09/02 02:57:59;;;;;;;1.25;1.10;;;12.60;99.90;;;;;;5054389;28;20040;-77
2023/09/02 03:00:25;;;;;;;2.03;1.40;;;12.40;99.90;;;;;;5071775;28;20397;-77
2023/09/02 03:02:52;;;;;;;4.20;1.80;;;12.40;99.90;;;;;;5057469;28;20036;-77
2023/09/02 03:05:19;;;;;;;5.63;2.40;;;12.40;99.90;;;;;;5020273;28;20032;-77
2023/09/02 03:07:45;;;;;;;4.70;2.50;;;12.30;99.90;;;;;;5033304;28;20513;-77
2023/09/02 03:10:11;;;;;;;5.93;2.95;;;12.30;99.90;;;;;;5066736;28;20102;-77
2023/09/02 03:12:36;;;;;;;5.80;2.97;;;12.30;99.90;;;;;;5062624;28;20067;-77
2023/09/02 03:15:03;;;;;;;6.22;3.20;;;12.30;99.90;;;;;;5041304;28;20132;-77
2023/09/02 03:17:28;;;;;;;6.03;3.03;;;12.40;99.90;;;;;;5060651;28;20028;-77
2023/09/02 03:19:54;;;;;;;8.00;3.92;;;12.50;99.90;;;;;;5056847;28;20055;-77
2023/09/02 03:22:20;;;;;;;3.13;1.88;;;12.50;99.90;;;;;;5063712;28;20119;-77
2023/09/02 03:24:45;;;;;;;1.52;1.02;;;12.50;99.90;;;;;;5047117;28;20068;-77
2023/09/02 03:27:11;;;;;;;2.63;1.20;;;12.60;99.90;;;;;;5050443;28;20056;-77
2023/09/02 03:29:36;;;;;;;2.22;1.10;;;12.50;99.90;;;;;;5052543;28;20464;-77
2023/09/02 03:32:02;;;;;;;4.07;1.33;;;12.50;99.90;;;;;;5052512;28;20045;-77
2023/09/02 03:34:27;;;;;;;2.25;1.38;;;12.50;99.90;;;;;;5052828;28;20143;-78
2023/09/02 03:36:53;;;;;;;2.70;1.50;;;12.50;99.90;;;;;;5052295;28;20094;-78
2023/09/02 03:39:18;;;;;;;1.88;1.20;;;12.50;99.90;;;;;;5031671;28;20040;-78
2023/09/02 03:41:45;;;;;;;4.45;2.00;;;12.50;99.90;;;;;;5044557;28;20045;-77
2023/09/02 03:44:11;;;;;;;4.70;2.22;;;12.50;99.90;;;;;;5061082;28;20381;-78
2023/09/02 03:46:36;;;;;;;6.75;2.10;;;12.50;99.90;;;;;;5060710;28;20040;-77
2023/09/02 03:49:02;;;;;;;4.40;2.10;;;12.40;99.90;;;;;;5050427;28;20392;-77
2023/09/02 03:51:28;;;;;;;6.78;2.90;;;12.40;99.90;;;;;;5051231;28;20037;-77
2023/09/02 03:53:54;;;;;;;6.43;3.30;;;12.40;99.90;;;;;;5046661;28;20117;-77
2023/09/02 03:56:20;;;;;;;6.32;3.40;;;12.40;99.90;;;;;;5068072;28;20488;-77
2023/09/02 03:58:47;;;;;;;6.47;3.45;;;12.40;99.90;;;;;;5051526;28;20079;-77
2023/09/02 04:01:13;;;;;;;6.90;3.42;;;12.40;99.90;;;;;;5033980;28;20044;-77
2023/09/02 04:03:39;;;;;;;4.97;2.80;;;12.40;99.90;;;;;;5071990;28;20480;-77
2023/09/02 04:06:05;;;;;;;5.40;2.88;;;12.40;99.90;;;;;;5040234;28;20059;-77
2023/09/02 04:08:34;;;;;;;7.82;3.80;;;12.40;99.90;;;;;;5067520;28;20048;-77
2023/09/02 04:11:01;;;;;;;7.03;4.10;;;12.40;99.90;;;;;;5040262;28;20127;-77
2023/09/02 04:13:28;;;;;;;8.02;5.00;;;12.40;99.90;;;;;;5071983;28;20032;-77
2023/09/02 04:15:55;;;;;;;9.35;5.28;;;12.30;99.90;;;;;;5036988;28;20090;-77
2023/09/02 04:18:21;;;;;;;7.60;5.03;;;12.30;99.90;;;;;;5058883;28;20553;-77
2023/09/02 04:20:47;;;;;;;10.95;5.63;;;12.30;99.90;;;;;;5058038;28;20029;-77
2023/09/02 04:23:12;;;;;;;8.52;4.82;;;12.40;99.90;;;;;;5039371;28;20044;-78
2023/09/02 04:25:49;;;;;;;8.15;4.70;;;12.50;99.90;;;;;;5047322;28;20033;-77
2023/09/02 04:28:15;;;;;;;9.30;4.82;;;12.40;99.90;;;;;;5075132;28;20101;-77
2023/09/02 04:30:42;;;;;;;10.20;6.00;;;12.50;99.90;;;;;;5050897;28;20058;-77
2023/09/02 04:33:08;;;;;;;9.95;6.80;;;12.50;99.90;;;;;;5064357;28;20044;-77
2023/09/02 04:35:38;;;;;;;10.55;6.80;;;12.50;99.90;;;;;;5074069;28;20039;-77
2023/09/02 04:38:04;;;;;;;10.93;6.82;;;12.50;99.90;;;;;;5049827;28;20041;-77
2023/09/02 04:40:30;;;;;;;9.30;6.32;;;12.50;99.90;;;;;;5035536;28;20036;-77
2023/09/02 04:42:56;;;;;;;9.88;6.85;;;12.50;99.90;;;;;;5043066;28;20432;-77
2023/09/02 04:45:22;;;;;;;11.73;8.20;;;12.50;99.90;;;;;;5033121;28;20036;-78
2023/09/02 04:47:48;;;;;;;12.63;8.43;;;12.60;99.90;;;;;;5069249;28;20028;-77
2023/09/02 04:50:14;;;;;;;10.45;7.43;;;12.60;99.90;;;;;;5073065;28;20036;-77
2023/09/02 04:52:39;;;;;;;8.65;5.20;;;12.60;99.90;;;;;;5047185;28;20039;-77
2023/09/02 04:55:05;;;;;;;7.22;4.63;;;12.60;99.90;;;;;;5065920;28;20519;-77
2023/09/02 04:57:33;;;;;;;7.85;4.70;;;12.60;99.90;;;;;;5066445;28;20409;-77
2023/09/02 04:59:59;;;;;;;8.77;5.07;;;12.70;99.90;;;;;;5061748;28;20423;-77
2023/09/02 05:02:24;;;;;;;12.25;6.90;;;12.70;99.90;;;;;;5057338;28;20067;-77
2023/09/02 05:04:51;;;;;;;10.88;6.57;;;12.70;99.90;;;;;;5054795;28;20044;-77
2023/09/02 05:07:17;;;;;;;9.82;6.43;;;12.70;99.90;;;;;;5067909;28;20489;-77
2023/09/02 05:09:42;;;;;;;9.95;6.65;;;12.70;99.90;;;;;;5045633;28;20040;-77
2023/09/02 05:12:08;;;;;;;11.13;6.80;;;12.70;99.90;;;;;;5058408;28;20037;-77
2023/09/02 05:14:34;;;;;;;11.77;8.23;;;12.70;99.90;;;;;;5069560;28;20544;-77
2023/09/02 05:16:59;;;;;;;11.10;7.57;;;12.70;99.90;;;;;;5052123;28;20103;-77
2023/09/02 05:19:25;;;;;;;13.27;8.85;;;12.70;99.90;;;;;;5058700;28;20056;-77
2023/09/02 05:21:51;;;;;;;11.77;6.85;;;12.70;99.90;;;;;;5063619;28;20496;-77
2023/09/02 05:24:16;;;;;;;10.90;7.13;;;12.70;99.90;;;;;;5040919;28;20036;-77
2023/09/02 05:26:42;;;;;;;10.45;7.40;;;12.70;99.90;;;;;;5048123;28;20564;-76
2023/09/02 05:29:07;;;;;;;11.18;7.22;;;12.70;99.90;;;;;;5064887;28;20032;-77
2023/09/02 05:31:33;;;;;;;12.02;7.43;;;12.80;99.90;;;;;;5059328;28;20044;-78
2023/09/02 05:33:59;;;;;;;12.88;8.68;;;12.80;99.90;;;;;;5054733;28;20396;-77
2023/09/02 05:36:24;;;;;;;12.65;8.38;;;12.80;99.90;;;;;;5083906;28;20044;-78
2023/09/02 05:38:50;;;;;;;13.00;9.13;;;12.80;99.90;;;;;;5040298;28;20040;-77
2023/09/02 05:41:15;;;;;;;12.85;8.95;;;12.90;99.90;;;;;;5061377;28;20090;-77
2023/09/02 05:43:41;;;;;;;11.90;9.13;;;12.80;99.90;;;;;;5040992;28;20492;-77
2023/09/02 05:46:06;;;;;;;13.25;9.50;;;12.90;99.90;;;;;;5036538;28;20425;-77
2023/09/02 05:48:32;;;;;;;11.80;8.48;;;12.90;99.90;;;;;;5035790;28;20409;-77
2023/09/02 05:50:58;;;;;;;14.77;9.90;;;12.90;99.90;;;;;;5039397;28;20393;-77
2023/09/02 05:53:24;;;;;;;14.73;9.48;;;12.90;99.90;;;;;;5039135;28;20546;-77
2023/09/02 05:55:56;;;;;;;10.93;8.48;;;12.90;99.90;;;;;;5054726;28;20443;-77
2023/09/02 05:58:25;;;;;;;14.20;9.80;;;13.00;99.90;;;;;;5054689;28;20036;-77
2023/09/02 06:00:51;;;;;;;14.75;10.35;;;13.00;99.90;;;;;;5052636;28;20430;-77
2023/09/02 06:03:17;;;;;;;13.10;9.52;;;13.00;99.90;;;;;;5054575;28;20084;-77
2023/09/02 06:05:42;;;;;;;14.68;9.95;;;13.10;99.90;;;;;;5047558;28;20037;-77
2023/09/02 06:08:08;;;;;;;16.63;11.07;;;13.20;99.90;;;;;;5052353;28;20036;-78
2023/09/02 06:10:34;;;;;;;14.35;10.70;;;13.20;99.90;;;;;;5064298;28;20037;-77
2023/09/02 06:12:59;;;;;;;15.98;11.48;;;13.20;99.90;;;;;;5057545;28;20049;-77
2023/09/02 06:15:25;;;;;;;18.20;11.27;;;13.30;99.90;;;;;;5045759;28;20115;-77
2023/09/02 06:17:51;;;;;;;15.90;11.50;;;13.40;99.90;;;;;;5043127;28;20049;-77
2023/09/02 06:20:20;;;;;;;19.13;12.90;;;13.40;99.90;;;;;;5048639;28;20405;-77
2023/09/02 06:22:46;;;;;;;19.08;12.88;;;13.50;99.90;;;;;;5064385;28;20076;-77
2023/09/02 06:25:12;;;;;;;19.63;13.48;;;13.50;99.90;;;;;;5039851;28;20466;-77
2023/09/02 06:27:38;;;;;;;17.70;11.88;;;13.60;99.90;;;;;;5050975;28;20045;-76
2023/09/02 06:30:04;;;;;;;21.98;14.40;;;13.50;99.90;;;;;;5073940;28;20366;-76
2023/09/02 06:32:30;;;;;;;21.90;15.25;;;13.70;99.90;;;;;;5036656;28;20040;-77
2023/09/02 06:34:56;;;;;;;19.65;13.95;;;13.80;99.90;;;;;;5051712;28;20045;-76
2023/09/02 06:37:21;;;;;;;22.73;15.60;;;13.80;99.90;;;;;;5067982;28;20068;-76
2023/09/02 06:39:53;;;;;;;19.98;14.02;;;13.90;99.90;;;;;;5053363;28;20041;-76
2023/09/02 06:42:19;;;;;;;17.02;12.52;;;13.90;99.90;;;;;;5053538;28;20048;-76
2023/09/02 06:44:47;;;;;;;18.83;13.82;;;13.90;99.90;;;;;;5036780;28;20048;-76
2023/09/02 06:47:13;;;;;;;19.42;13.73;;;14.00;99.90;;;;;;5034040;28;20546;-77
2023/09/02 06:49:39;;;;;;;17.65;13.57;;;14.00;99.90;;;;;;5051882;28;20504;-76
2023/09/02 06:52:04;;;;;;;19.27;14.52;;;14.10;99.90;;;;;;5052339;28;20067;-76
2023/09/02 06:54:30;;;;;;;18.20;14.10;;;14.20;99.90;;;;;;5051283;28;20033;-76
2023/09/02 06:56:56;;;;;;;19.08;14.68;;;14.20;99.90;;;;;;5052945;28;20047;-77
2023/09/02 06:59:23;;;;;;;20.77;16.90;;;14.40;99.90;;;;;;5035914;28;20045;-77
2023/09/02 07:01:48;;;;;;;20.75;15.82;;;14.40;99.90;;;;;;5036358;28;20094;-77
2023/09/02 07:04:14;;;;;;;22.48;17.45;;;14.50;99.90;;;;;;5052445;28;20048;-78
2023/09/02 07:06:39;;;;;;;25.40;18.48;;;14.60;99.90;;;;;;5052959;28;20059;-77
2023/09/02 07:09:05;;;;;;;26.27;19.67;;;14.70;99.90;;;;;;5050583;28;20037;-78
2023/09/02 07:11:31;;;;;;;23.98;17.10;;;14.80;99.90;;;;;;5068121;28;20063;-77
2023/09/02 07:13:57;;;;;;;26.27;20.33;;;14.80;99.90;;;;;;5051674;28;20040;-77
2023/09/02 07:16:23;;;;;;;24.35;18.38;;;14.90;99.90;;;;;;5036156;28;20053;-77
2023/09/02 07:18:49;;;;;;;20.80;17.08;;;14.90;99.90;;;;;;5050090;28;20032;-77
2023/09/02 07:21:14;;;;;;;24.17;18.05;;;15.00;99.90;;;;;;5050693;28;20491;-77
2023/09/02 07:23:40;;;;;;;25.70;18.77;;;15.00;99.90;;;;;;5052731;28;20037;-77
2023/09/02 07:26:05;;;;;;;24.85;18.48;;;15.00;99.90;;;;;;5050424;28;20036;-77
2023/09/02 07:28:32;;;;;;;22.23;17.30;;;15.10;99.90;;;;;;5052261;28;20505;-77
2023/09/02 07:31:01;;;;;;;21.38;17.25;;;15.10;99.90;;;;;;5050468;28;20037;-77
2023/09/02 07:33:27;;;;;;;23.25;18.42;;;15.10;99.90;;;;;;5052588;28;20086;-77
2023/09/02 07:35:53;;;;;;;25.27;19.75;;;15.10;99.90;;;;;;5067766;28;20052;-77
2023/09/02 07:38:18;;;;;;;27.35;21.48;;;15.20;99.90;;;;;;5052485;28;20045;-77
2023/09/02 07:40:44;;;;;;;25.92;21.13;;;15.30;99.90;;;;;;5064905;28;20029;-77
2023/09/02 07:43:11;;;;;;;27.27;20.42;;;15.50;99.90;;;;;;5052463;28;20401;-77
2023/09/02 07:45:36;;;;;;;24.73;19.60;;;15.50;99.90;;;;;;5051652;28;20036;-76
2023/09/02 07:48:02;;;;;;;27.90;20.15;;;15.50;99.90;;;;;;5035612;28;20041;-77
2023/09/02 07:50:28;;;;;;;27.05;22.55;;;15.60;99.90;;;;;;5049952;28;20116;-78
2023/09/02 07:52:53;;;;;;;33.78;23.20;;;15.70;99.90;;;;;;5052091;28;20438;-77
2023/09/02 07:55:19;;;;;;;24.05;17.20;;;15.80;99.90;;;;;;5050880;28;20041;-79
2023/09/02 07:57:44;;;;;;;24.23;19.65;;;15.90;99.90;;;;;;5051298;28;20041;-77
2023/09/02 08:00:10;;;;;;;27.15;19.88;;;16.10;99.90;;;;;;5035123;28;20124;-77
2023/09/02 08:02:36;;;;;;;25.30;19.95;;;16.10;99.90;;;;;;5034205;28;20124;-77
2023/09/02 08:05:01;;;;;;;25.75;19.45;;;16.10;99.90;;;;;;5052008;28;20469;-77
2023/09/02 08:07:27;;;;;;;27.23;20.25;;;16.40;99.90;;;;;;5050791;28;20036;-78
2023/09/02 08:09:53;;;;;;;28.58;20.95;;;16.40;99.90;;;;;;5068718;28;20084;-77
2023/09/02 08:12:18;;;;;;;28.15;20.38;;;16.40;99.90;;;;;;5049806;28;20065;-78
2023/09/02 08:14:44;;;;;;;28.38;21.58;;;16.50;99.90;;;;;;5068556;28;20448;-77
2023/09/02 08:17:09;;;;;;;31.08;21.95;;;16.50;99.90;;;;;;5029640;28;20404;-79
2023/09/02 08:19:35;;;;;;;25.92;20.17;;;16.60;99.90;;;;;;5049977;28;20458;-79
2023/09/02 08:22:00;;;;;;;30.25;22.65;;;16.70;99.90;;;;;;5065533;28;20037;-78
2023/09/02 08:24:26;;;;;;;26.02;17.60;;;16.80;99.90;;;;;;5071946;28;20075;-78
2023/09/02 08:26:51;;;;;;;25.83;20.52;;;17.10;99.90;;;;;;5073020;28;20040;-75
2023/09/02 08:29:17;;;;;;;24.75;17.77;;;17.40;99.90;;;;;;5046303;28;20490;-77
2023/09/02 08:31:42;;;;;;;24.20;18.17;;;17.40;99.90;;;;;;5063763;28;20095;-79
2023/09/02 08:34:09;;;;;;;27.45;20.35;;;17.60;99.90;;;;;;5031757;28;20099;-79
2023/09/02 08:36:34;;;;;;;23.75;18.90;;;17.80;99.90;;;;;;5031721;28;20103;-79
2023/09/02 08:39:00;;;;;;;26.02;19.38;;;17.70;99.90;;;;;;5050414;28;20044;-79
2023/09/02 08:41:29;;;;;;;23.70;18.73;;;17.80;99.90;;;;;;5064826;28;20033;-79
2023/09/02 08:44:00;;;;;;;26.95;17.98;;;17.80;99.90;;;;;;5051787;28;20088;-79
2023/09/02 08:46:27;;;;;;;26.92;20.65;;;17.80;99.90;;;;;;5051917;28;20371;-79
2023/09/02 08:48:55;;;;;;;28.60;19.90;;;17.80;99.90;;;;;;5057129;28;20040;-79
2023/09/02 08:51:22;;;;;;;26.30;16.98;;;17.90;99.90;;;;;;5038367;28;20136;-79
2023/09/02 08:53:49;;;;;;;21.90;16.38;;;18.10;99.90;;;;;;5051654;28;20448;-79
2023/09/02 08:56:15;;;;;;;21.38;17.33;;;18.40;99.90;;;;;;5067258;28;20119;-79
2023/09/02 08:58:41;;;;;;;19.98;15.25;;;18.40;99.90;;;;;;5045483;28;20163;-79
2023/09/02 09:01:07;;;;;;;24.60;17.92;;;18.50;99.90;;;;;;5044823;28;20052;-79
2023/09/02 09:03:33;;;;;;;26.98;18.77;;;18.70;99.90;;;;;;5054465;28;20488;-79
2023/09/02 09:06:05;;;;;;;20.23;13.80;;;18.60;99.90;;;;;;5070346;28;20040;-80
2023/09/02 09:08:32;;;;;;;23.40;17.10;;;18.80;99.90;;;;;;5051972;28;20040;-79
2023/09/02 09:10:58;;;;;;;23.20;15.25;;;18.80;99.90;;;;;;5069817;28;20037;-79
2023/09/02 09:13:26;;;;;;;23.63;16.67;;;18.80;99.90;;;;;;5061458;28;20045;-79
2023/09/02 09:15:56;;;;;;;23.38;17.70;;;18.90;99.90;;;;;;5071823;28;20041;-80
2023/09/02 09:18:22;;;;;;;19.45;15.48;;;18.90;99.90;;;;;;5054058;28;20041;-80
2023/09/02 09:20:48;;;;;;;24.67;18.77;;;19.10;99.90;;;;;;5074899;28;20046;-79
2023/09/02 09:23:13;;;;;;;28.35;20.35;;;19.10;99.90;;;;;;5065781;28;20069;-79
2023/09/02 09:25:39;;;;;;;28.38;19.90;;;19.20;99.90;;;;;;5054256;28;20091;-80
2023/09/02 09:28:12;;;;;;;23.05;18.25;;;19.10;99.90;;;;;;5057094;28;20087;-79
2023/09/02 09:30:38;;;;;;;22.35;15.65;;;19.20;99.90;;;;;;5074986;28;20036;-80
2023/09/02 09:33:05;;;;;;;23.02;16.63;;;19.40;99.90;;;;;;5053198;28;20091;-80
2023/09/02 09:35:35;;;;;;;22.85;14.88;;;19.50;99.90;;;;;;5038290;28;20041;-80
2023/09/02 09:38:01;;;;;;;21.05;15.32;;;19.60;99.90;;;;;;5036429;28;20096;-79
2023/09/02 09:40:35;;;;;;;25.13;18.88;;;19.70;99.90;;;;;;5068914;28;20484;-79
2023/09/02 09:43:02;;;;;;;25.13;19.42;;;19.70;99.90;;;;;;5026193;28;20041;-80
2023/09/02 09:45:29;;;;;;;24.92;18.38;;;19.70;99.90;;;;;;5055334;28;20041;-79
2023/09/02 09:47:59;;;;;;;27.95;18.50;;;19.70;99.90;;;;;;5055545;28;20060;-79
2023/09/02 09:50:27;;;;;;;27.30;18.88;;;19.70;99.90;;;;;;5037614;28;20037;-80
2023/09/02 09:53:09;;;;;;;26.05;18.92;;;19.80;99.90;;;;;;5061485;28;20378;-79
2023/09/02 09:55:36;;;;;;;23.27;19.15;;;19.90;99.90;;;;;;5054863;28;20059;-80
2023/09/02 09:58:03;;;;;;;21.83;17.15;;;20.00;99.90;;;;;;5051901;28;20055;-80
2023/09/02 10:00:29;;;;;;;29.30;20.63;;;20.20;99.90;;;;;;5048656;28;20041;-80
2023/09/02 10:02:56;;;;;;;22.27;17.23;;;20.20;99.90;;;;;;5052838;28;20511;-80
2023/09/02 10:05:34;;;;;;;28.25;21.23;;;20.20;99.90;;;;;;5035952;28;20044;-80
2023/09/02 10:08:05;;;;;;;21.38;17.20;;;20.20;99.90;;;;;;5052650;28;20550;-80
2023/09/02 10:10:35;;;;;;;24.45;15.88;;;20.20;99.90;;;;;;5037246;28;20040;-80
2023/09/02 10:13:01;;;;;;;22.95;17.13;;;20.40;99.90;;;;;;5031050;28;20057;-81
2023/09/02 10:15:28;;;;;;;22.90;16.67;;;20.40;99.90;;;;;;5059657;28;20413;-80
2023/09/02 10:17:56;;;;;;;28.98;19.90;;;20.40;99.90;;;;;;5071525;28;20076;-81
2023/09/02 10:20:25;;;;;;;23.70;17.20;;;20.30;99.90;;;;;;5061978;28;20440;-80
2023/09/02 10:22:51;;;;;;;26.02;18.17;;;20.30;99.90;;;;;;5056395;28;20509;-80
2023/09/02 10:25:24;;;;;;;23.30;16.90;;;20.20;99.90;;;;;;5071412;28;20042;-80
2023/09/02 10:28:04;;;;;;;19.85;14.60;;;20.20;99.90;;;;;;5070205;28;20059;-80
2023/09/02 10:30:45;;;;;;;21.75;15.85;;;20.00;99.90;;;;;;5070849;28;20044;-80
2023/09/02 10:33:27;;;;;;;19.40;14.60;;;19.90;99.90;;;;;;5048999;28;20041;-80
2023/09/02 10:35:59;;;;;;;17.17;13.38;;;19.80;99.90;;;;;;5026748;28;20076;-80
2023/09/02 10:38:26;;;;;;;19.63;12.93;;;19.70;99.90;;;;;;5052852;28;20513;-80
2023/09/02 10:40:59;;;;;;;21.30;14.40;;;19.60;99.90;;;;;;5052900;28;20054;-80
2023/09/02 10:43:25;;;;;;;20.23;14.43;;;19.70;99.90;;;;;;5052853;28;20084;-80
2023/09/02 10:45:51;;;;;;;17.70;14.15;;;19.90;99.90;;;;;;5052283;28;20061;-80
2023/09/02 10:48:19;;;;;;;21.00;15.40;;;20.00;99.90;;;;;;5069614;28;20087;-82
2023/09/02 10:50:44;;;;;;;20.83;14.95;;;20.10;99.90;;;;;;5023409;28;20040;-80
2023/09/02 10:53:10;;;;;;;21.92;16.88;;;20.00;99.90;;;;;;5045109;28;20048;-81
2023/09/02 10:55:59;;;;;;;21.70;14.93;;;20.10;99.90;;;;;;5034908;28;20111;-80
2023/09/02 10:58:25;;;;;;;16.63;12.65;;;20.20;99.90;;;;;;5065005;28;20037;-81
2023/09/02 11:00:52;;;;;;;16.10;12.38;;;20.20;99.90;;;;;;5049200;28;20052;-81
2023/09/02 11:03:44;;;;;;;18.02;13.00;;;20.30;99.90;;;;;;5051964;28;20048;-81
2023/09/02 11:06:12;;;;;;;13.98;10.18;;;20.50;99.90;;;;;;5066508;28;20045;-81
2023/09/02 11:08:46;;;;;;;19.05;14.80;;;20.50;99.90;;;;;;5072847;28;20120;-80
2023/09/02 11:11:15;;;;;;;20.65;14.32;;;20.50;99.90;;;;;;5070087;28;20036;-81
2023/09/02 11:14:06;;;;;;;18.58;14.63;;;20.70;99.90;;;;;;5066016;28;20086;-81
2023/09/02 11:16:32;;;;;;;17.65;13.80;;;20.50;99.90;;;;;;5047620;28;20040;-81
2023/09/02 11:19:00;;;;;;;15.32;11.65;;;20.50;99.90;;;;;;5066297;28;20453;-81
2023/09/02 11:21:46;;;;;;;16.75;12.18;;;20.40;99.90;;;;;;5069660;28;20085;-81
2023/09/02 11:24:22;;;;;;;17.63;12.43;;;20.30;99.90;;;;;;5052392;28;20481;-81
2023/09/02 11:26:58;;;;;;;17.42;10.77;;;20.20;99.90;;;;;;5084875;28;20044;-80
2023/09/02 11:29:28;;;;;;;17.30;11.57;;;20.10;99.90;;;;;;5055538;28;20067;-82
2023/09/02 11:31:59;;;;;;;16.85;10.98;;;20.00;99.90;;;;;;5066085;28;20075;-81
2023/09/02 11:34:26;;;;;;;16.23;11.20;;;19.90;99.90;;;;;;5037503;28;20033;-81
2023/09/02 11:36:53;;;;;;;14.82;10.68;;;19.90;99.90;;;;;;5042374;28;20037;-80
2023/09/02 11:39:18;;;;;;;17.15;10.18;;;19.90;99.90;;;;;;5071689;28;20041;-82
2023/09/02 11:41:44;;;;;;;16.75;10.85;;;20.00;99.90;;;;;;5041079;28;20040;-81
2023/09/02 11:44:13;;;;;;;12.40;9.13;;;20.10;99.90;;;;;;5040962;28;20074;-81
2023/09/02 11:46:39;;;;;;;13.05;7.95;;;20.20;99.90;;;;;;5054021;28;20093;-81
2023/09/02 11:49:23;;;;;;;13.65;8.85;;;20.30;99.90;;;;;;5038140;28;20036;-81
2023/09/02 11:51:49;;;;;;;14.80;9.32;;;20.40;99.90;;;;;;5040048;28;20041;-81
2023/09/02 11:54:16;;;;;;;11.68;7.75;;;20.70;99.90;;;;;;5049077;28;20374;-81
2023/09/02 11:56:41;;;;;;;14.32;10.07;;;20.60;99.90;;;;;;5070455;28;20041;-81
2023/09/02 11:59:22;;;;;;;15.40;10.60;;;20.60;99.90;;;;;;5027493;28;20041;-81
2023/09/02 12:02:07;;;;;;;14.35;8.25;;;20.60;99.90;;;;;;5054710;28;20488;-81
2023/09/02 12:04:40;;;;;;;13.30;6.95;;;20.60;99.90;;;;;;5063472;28;20086;-81
2023/09/02 12:07:07;;;;;;;11.10;6.88;;;20.50;99.90;;;;;;5035272;28;20033;-81
2023/09/02 12:09:37;;;;;;;11.40;6.60;;;20.40;99.90;;;;;;5052961;28;20383;-81
2023/09/02 12:12:03;;;;;;;11.73;6.85;;;20.40;99.90;;;;;;5040351;28;20090;-81
2023/09/02 12:14:28;;;;;;;10.25;6.40;;;20.50;99.90;;;;;;5042491;28;20114;-81
2023/09/02 12:17:01;;;;;;;11.90;6.68;;;20.50;99.90;;;;;;5045467;28;20512;-81
2023/09/02 12:19:26;;;;;;;10.40;6.55;;;20.60;99.90;;;;;;5040796;28;20083;-81
2023/09/02 12:21:54;;;;;;;11.63;6.10;;;20.50;99.90;;;;;;5051266;28;20045;-82
2023/09/02 12:24:19;;;;;;;11.90;7.25;;;20.70;99.90;;;;;;5051305;28;20063;-82
2023/09/02 12:26:51;;;;;;;10.70;6.20;;;20.70;99.90;;;;;;5048020;28;20079;-81
2023/09/02 12:29:17;;;;;;;;;;;20.70;99.90;;;;;;5031326;28;20041;-81
2023/09/02 12:31:51;;;;;;;9.48;5.38;;;20.60;99.90;;;;;;5031255;28;19971;-81
2023/09/02 12:34:17;;;;;;;10.35;5.28;;;20.40;99.90;;;;;;5048726;28;20044;-81
2023/09/02 12:36:42;;;;;;;8.48;5.50;;;20.30;99.90;;;;;;5051031;28;20048;-81